Bookmark and Share
Track history (hours):
 

APL Indonesia

Last reported at 2014-Apr-23 09:34 UTC. Time now 2014-Apr-23 09:35 UTC.
Position N 40°36' W 074°02'.

Length 261 m; draft 12.1 m.

Type: Ship (hazmat cat B). MMSI: 305386000.

NotesDate/timePositionNaut miles runAvg speedWind from/ knotsBaromVisibWave heightAir tempDewpointWater temp
2014-Apr-23 09:34N 40°36' W 074°02'9 9.2
2014-Apr-23 08:34N 40°29' W 073°54'8 7.3
2014-Apr-23 07:31N 40°27' W 073°45'37 6.1
2014-Apr-23 01:28N 40°30' W 072°57'5 5.9
2014-Apr-23 00:33N 40°30' W 072°49'6 5.7
2014-Apr-22 23:29N 40°30' W 072°41'6 6.0
2014-Apr-22 22:33N 40°30' W 072°34'6 6.0
2014-Apr-22 21:33N 40°31' W 072°26'6 6.2
2014-Apr-22 20:33N 40°31' W 072°18'7 5.6
2014-Apr-22 19:14N 40°31' W 072°08'4 5.7
2014-Apr-22 18:33N 40°31' W 072°03'6 5.8
2014-Apr-22 17:33N 40°31' W 071°56'6 5.7
2014-Apr-22 16:33N 40°32' W 071°48'6 5.7
2014-Apr-22 15:30N 40°32' W 071°40'7 5.6
2014-Apr-22 14:12N 40°32' W 071°31'4 5.6
2014-Apr-22 13:33N 40°32' W 071°26'6 5.5
2014-Apr-22 12:33N 40°32' W 071°19'5 5.5
2014-Apr-22 11:33N 40°32' W 071°11'5 5.3
2014-Apr-22 10:33N 40°32' W 071°04'5 5.2
2014-Apr-22 09:33N 40°32' W 070°58'5 5.2
2014-Apr-22 08:33N 40°33' W 070°51'5 5.3
2014-Apr-22 07:33N 40°33' W 070°44'5 5.3
2014-Apr-22 06:33N 40°33' W 070°37'5 5.4
2014-Apr-22 05:33N 40°33' W 070°30'6 5.5
2014-Apr-22 04:33N 40°33' W 070°23'6 5.7
2014-Apr-22 03:34N 40°33' W 070°15'6 5.8
2014-Apr-22 02:33N 40°33' W 070°07'6 5.9
2014-Apr-22 01:33N 40°33' W 069°60'6 5.7
2014-Apr-22 00:33N 40°34' W 069°52'6 5.6
2014-Apr-21 23:33N 40°34' W 069°45'5 5.3
2014-Apr-21 22:33N 40°34' W 069°38'5 5.1
2014-Apr-21 21:33N 40°34' W 069°31'5 4.9
2014-Apr-21 20:32N 40°34' W 069°24'5 4.8
2014-Apr-21 19:33N 40°35' W 069°18'5 5.1
2014-Apr-21 18:34N 40°35' W 069°12'6 5.6
2014-Apr-21 17:33N 40°35' W 069°04'10 8.4
2014-Apr-21 16:25N 40°35' W 068°52'3315.8
2014-Apr-21 14:21N 40°35' W 068°08'  
2014-Apr-14 09:34N 50°18' W 001°02'1817.9
2014-Apr-14 08:33N 50°24' W 000°35'3416.9
2014-Apr-14 06:32N 50°33' E 000°16'1717.2
2014-Apr-14 05:33N 50°40' E 000°41'8111.5
2014-Apr-13 22:32N 51°57' E 001°19'0 0.0
2014-Apr-13 21:32N 51°57' E 001°19'0 0.0
2014-Apr-13 20:32N 51°57' E 001°19'0 0.0
2014-Apr-13 19:32N 51°57' E 001°19'0 0.0
2014-Apr-13 18:32N 51°57' E 001°19'0 0.0
2014-Apr-13 17:32N 51°57' E 001°19'0 0.0
2014-Apr-13 15:32N 51°57' E 001°19'0 0.0
2014-Apr-13 14:32N 51°57' E 001°19'0 0.0
2014-Apr-13 13:32N 51°57' E 001°19'0 0.0
2014-Apr-13 12:32N 51°57' E 001°19'0 0.0
2014-Apr-13 11:32N 51°57' E 001°19'0 0.0
2014-Apr-13 10:32N 51°57' E 001°19'0 0.0
2014-Apr-13 09:33N 51°57' E 001°19'  

Dump ship's entire track history

sailing weather and tide predictions

APL Indonesia — V2EC7 — position and weather